Time,TemperatureF,DewpointF,PressureIn,WindDirection,WindDirectionDegrees,WindSpeedMPH,WindSpeedGustMPH,Humidity,HourlyPrecipIn,Conditions,Clouds,dailyrainin,SolarRadiationWatts/m^2,SoftwareType,DateUTC
2013-11-12 00:03:00,40.0,39.0,-100.00,NE,45,6.0,16.0,96,0.03,,,0.04,0.000000,,2013-11-12 05:03:00,
2013-11-12 00:44:00,36.0,35.0,-100.00,ENE,58,6.0,20.0,95,0.02,,,-99.99,0.000000,,2013-11-12 05:44:00,
2013-11-12 00:54:00,36.0,35.0,-100.00,ENE,58,6.0,20.0,95,0.02,,,-99.99,0.000000,,2013-11-12 05:54:00,
2013-11-12 01:03:00,36.0,35.0,-100.00,ENE,58,6.0,20.0,95,0.02,,,-99.99,0.000000,,2013-11-12 06:03:00,
2013-11-12 01:42:00,33.0,32.0,-100.00,NE,50,7.0,18.0,96,0.01,,,0.07,0.000000,,2013-11-12 06:42:00,
2013-11-12 01:52:00,33.0,32.0,-100.00,NE,50,7.0,18.0,96,0.01,,,0.07,0.000000,,2013-11-12 06:52:00,
2013-11-12 02:02:00,33.0,32.0,-100.00,NE,50,7.0,18.0,96,0.01,,,0.07,0.000000,,2013-11-12 07:02:00,
2013-11-12 02:42:00,31.0,31.0,-100.00,NE,51,6.0,22.0,98,0.00,,,-99.99,0.000000,,2013-11-12 07:42:00,
2013-11-12 02:52:00,31.0,31.0,-100.00,NE,51,6.0,22.0,98,0.00,,,-99.99,0.000000,,2013-11-12 07:52:00,
2013-11-12 03:02:00,31.0,31.0,-100.00,NE,51,6.0,22.0,98,0.00,,,-99.99,0.000000,,2013-11-12 08:02:00,
2013-11-12 03:42:00,30.0,29.0,-100.00,ENE,58,5.0,17.0,96,0.00,,,0.07,0.000000,,2013-11-12 08:42:00,
2013-11-12 03:52:00,30.0,29.0,-100.00,ENE,58,5.0,17.0,96,0.00,,,0.07,0.000000,,2013-11-12 08:52:00,
2013-11-12 04:02:00,30.0,29.0,-100.00,ENE,58,5.0,17.0,96,0.00,,,0.07,0.000000,,2013-11-12 09:02:00,
2013-11-12 04:42:00,29.0,27.0,-100.00,ENE,58,5.0,12.0,92,0.00,,,0.07,0.000000,,2013-11-12 09:42:00,
2013-11-12 04:53:00,29.0,27.0,-100.00,ENE,58,5.0,12.0,92,0.00,,,0.07,0.000000,,2013-11-12 09:53:00,
2013-11-12 05:03:00,29.0,27.0,-100.00,ENE,58,5.0,12.0,92,0.00,,,0.07,0.000000,,2013-11-12 10:03:00,
2013-11-12 05:42:00,29.0,26.0,-100.00,NE,54,5.0,13.0,89,0.00,,,0.07,0.000000,,2013-11-12 10:42:00,
2013-11-12 05:53:00,29.0,26.0,-100.00,NE,54,5.0,13.0,89,0.00,,,0.07,0.000000,,2013-11-12 10:53:00,
2013-11-12 06:02:00,29.0,26.0,-100.00,NE,54,5.0,13.0,89,0.00,,,0.07,0.000000,,2013-11-12 11:02:00,
2013-11-12 07:42:00,27.0,22.0,-100.00,ENE,58,4.0,10.0,82,-99.99,,,0.07,0.000000,,2013-11-12 12:42:00,
2013-11-12 07:52:00,27.0,22.0,-100.00,ENE,58,4.0,10.0,82,-99.99,,,0.07,0.000000,,2013-11-12 12:52:00,
2013-11-12 08:01:00,27.0,22.0,-100.00,ENE,58,4.0,10.0,82,-99.99,,,0.07,0.000000,,2013-11-12 13:01:00,
2013-11-12 08:42:00,27.0,21.0,-100.00,NE,48,4.0,10.0,79,0.00,,,0.07,13.000000,,2013-11-12 13:42:00,
2013-11-12 08:52:00,27.0,21.0,-100.00,NE,48,4.0,10.0,79,0.00,,,0.07,13.000000,,2013-11-12 13:52:00,
2013-11-12 09:02:00,27.0,21.0,-100.00,NE,48,4.0,10.0,79,0.00,,,0.07,13.000000,,2013-11-12 14:02:00,
2013-11-12 09:42:00,30.0,21.0,-100.00,NE,52,5.0,12.0,69,0.00,,,0.07,181.000000,,2013-11-12 14:42:00,
2013-11-12 09:52:00,30.0,21.0,-100.00,NE,52,5.0,12.0,69,0.00,,,0.07,181.000000,,2013-11-12 14:52:00,
2013-11-12 10:02:00,30.0,21.0,-100.00,NE,52,5.0,12.0,69,0.00,,,0.07,181.000000,,2013-11-12 15:02:00,
2013-11-12 10:44:00,32.0,20.0,-100.00,ENE,65,5.0,13.0,61,0.02,,,0.09,353.000000,,2013-11-12 15:44:00,
2013-11-12 10:53:00,32.0,20.0,-100.00,ENE,65,5.0,13.0,61,0.02,,,0.09,353.000000,,2013-11-12 15:53:00,
2013-11-12 11:04:00,32.0,20.0,-100.00,ENE,65,5.0,13.0,61,0.02,,,0.09,353.000000,,2013-11-12 16:04:00,
2013-11-12 11:42:00,33.0,19.0,-100.00,ENE,62,6.0,16.0,55,0.01,,,0.10,460.000000,,2013-11-12 16:42:00,
2013-11-12 11:53:00,33.0,19.0,-100.00,ENE,62,6.0,16.0,55,0.01,,,0.10,460.000000,,2013-11-12 16:53:00,
2013-11-12 12:02:00,33.0,19.0,-100.00,ENE,62,6.0,16.0,55,0.01,,,0.10,460.000000,,2013-11-12 17:02:00,
2013-11-12 12:43:00,35.0,20.0,-100.00,NE,47,5.0,12.0,55,0.01,,,0.11,527.000000,,2013-11-12 17:43:00,
2013-11-12 12:52:00,35.0,20.0,-100.00,NE,47,5.0,12.0,55,0.01,,,0.11,527.000000,,2013-11-12 17:52:00,
2013-11-12 13:02:00,35.0,20.0,-100.00,NE,47,5.0,12.0,55,0.01,,,0.11,527.000000,,2013-11-12 18:02:00,
2013-11-12 13:42:00,37.0,20.0,-100.00,NE,49,5.0,13.0,49,0.00,,,0.11,568.000000,,2013-11-12 18:42:00,
2013-11-12 13:52:00,37.0,20.0,-100.00,NE,49,5.0,13.0,49,0.00,,,0.11,568.000000,,2013-11-12 18:52:00,
2013-11-12 14:01:00,37.0,20.0,-100.00,NE,49,5.0,13.0,49,0.00,,,0.11,568.000000,,2013-11-12 19:01:00,
2013-11-12 14:42:00,38.0,19.0,-100.00,ENE,62,5.0,11.0,45,0.00,,,0.11,508.000000,,2013-11-12 19:42:00,
2013-11-12 14:52:00,38.0,19.0,-100.00,ENE,62,5.0,11.0,45,0.00,,,0.11,508.000000,,2013-11-12 19:52:00,
2013-11-12 15:02:00,38.0,19.0,-100.00,ENE,62,5.0,11.0,45,0.00,,,0.11,508.000000,,2013-11-12 20:02:00,
2013-11-12 15:42:00,37.0,18.0,-100.00,NE,41,4.0,15.0,46,0.00,,,0.11,299.000000,,2013-11-12 20:42:00,
2013-11-12 15:52:00,37.0,18.0,-100.00,NE,41,4.0,15.0,46,0.00,,,0.11,299.000000,,2013-11-12 20:52:00,
2013-11-12 16:02:00,37.0,18.0,-100.00,NE,41,4.0,15.0,46,0.00,,,0.11,299.000000,,2013-11-12 21:02:00,
2013-11-12 16:44:00,39.0,16.0,-100.00,NE,52,6.0,16.0,39,0.00,,,0.11,259.000000,,2013-11-12 21:44:00,
2013-11-12 16:54:00,39.0,16.0,-100.00,NE,52,6.0,16.0,39,0.00,,,0.11,259.000000,,2013-11-12 21:54:00,
2013-11-12 17:04:00,39.0,16.0,-100.00,NE,52,6.0,16.0,39,0.00,,,0.11,259.000000,,2013-11-12 22:04:00,
2013-11-12 17:43:00,35.0,17.0,-100.00,NE,38,4.0,16.0,47,0.00,,,0.11,71.000000,,2013-11-12 22:43:00,
2013-11-12 17:54:00,35.0,17.0,-100.00,NE,38,4.0,16.0,47,0.00,,,0.11,71.000000,,2013-11-12 22:54:00,
2013-11-12 18:03:00,35.0,17.0,-100.00,NE,38,4.0,16.0,47,0.00,,,0.11,71.000000,,2013-11-12 23:03:00,
2013-11-12 18:42:00,33.0,18.0,-100.00,NE,41,5.0,10.0,54,0.00,,,0.11,4.000000,,2013-11-12 23:42:00,
2013-11-12 18:54:00,33.0,18.0,-100.00,NE,41,5.0,10.0,54,0.00,,,0.11,4.000000,,2013-11-12 23:54:00,
2013-11-12 19:02:00,33.0,18.0,-100.00,NE,41,5.0,10.0,54,0.00,,,0.11,4.000000,,2013-11-13 00:02:00,
2013-11-12 19:42:00,30.0,19.0,-100.00,NNE,29,2.0,11.0,64,0.00,,,0.11,0.000000,,2013-11-13 00:42:00,
2013-11-12 19:52:00,30.0,19.0,-100.00,NNE,29,2.0,11.0,64,0.00,,,0.11,0.000000,,2013-11-13 00:52:00,
2013-11-12 20:01:00,30.0,19.0,-100.00,NNE,29,2.0,11.0,64,0.00,,,0.11,0.000000,,2013-11-13 01:01:00,
2013-11-12 20:42:00,29.0,20.0,-100.00,NNE,24,2.0,6.0,70,0.00,,,0.11,0.000000,,2013-11-13 01:42:00,
2013-11-12 20:52:00,29.0,20.0,-100.00,NNE,24,2.0,6.0,70,0.00,,,0.11,0.000000,,2013-11-13 01:52:00,
2013-11-12 21:02:00,29.0,20.0,-100.00,NNE,24,2.0,6.0,70,0.00,,,0.11,0.000000,,2013-11-13 02:02:00,
2013-11-12 21:42:00,27.0,20.0,-100.00,NNE,28,1.0,6.0,73,0.00,,,0.10,0.000000,,2013-11-13 02:42:00,
2013-11-12 21:52:00,27.0,20.0,-100.00,NNE,28,1.0,6.0,73,0.00,,,0.10,0.000000,,2013-11-13 02:52:00,
2013-11-12 22:02:00,27.0,20.0,-100.00,NNE,28,1.0,6.0,73,0.00,,,0.10,0.000000,,2013-11-13 03:02:00,
2013-11-12 22:45:00,26.0,19.0,-100.00,NE,53,0.0,4.0,73,0.00,,,0.10,0.000000,,2013-11-13 03:45:00,
2013-11-12 22:54:00,26.0,19.0,-100.00,NE,53,0.0,4.0,73,0.00,,,0.10,0.000000,,2013-11-13 03:54:00,
2013-11-12 23:04:00,26.0,19.0,-100.00,NE,53,0.0,4.0,73,0.00,,,0.10,0.000000,,2013-11-13 04:04:00,
2013-11-12 23:43:00,25.0,18.0,-100.00,North,9,0.0,3.0,75,0.00,,,0.07,0.000000,,2013-11-13 04:43:00,
2013-11-12 23:53:00,25.0,18.0,-100.00,North,9,0.0,3.0,75,0.00,,,0.07,0.000000,,2013-11-13 04:53:00,